sensor_id;sensor_type;location;lat;lon;timestamp;pressure;altitude;pressure_sealevel;temperature
77223;BMP280;66218;48.928;9.140;2023-04-03T00:00:44;99299.50;;;4.80
77223;BMP280;66218;48.928;9.140;2023-04-03T00:03:10;99284.72;;;4.73
77223;BMP280;66218;48.928;9.140;2023-04-03T00:05:35;99286.91;;;4.75
77223;BMP280;66218;48.928;9.140;2023-04-03T00:08:01;99290.44;;;4.77
77223;BMP280;66218;48.928;9.140;2023-04-03T00:10:27;99287.88;;;4.79
77223;BMP280;66218;48.928;9.140;2023-04-03T00:12:53;99288.44;;;4.78
77223;BMP280;66218;48.928;9.140;2023-04-03T00:15:18;99287.88;;;4.79
77223;BMP280;66218;48.928;9.140;2023-04-03T00:17:44;99295.19;;;4.77
77223;BMP280;66218;48.928;9.140;2023-04-03T00:20:09;99295.81;;;4.75
77223;BMP280;66218;48.928;9.140;2023-04-03T00:22:35;99293.19;;;4.77
77223;BMP280;66218;48.928;9.140;2023-04-03T00:25:00;99302.72;;;4.76
77223;BMP280;66218;48.928;9.140;2023-04-03T00:27:25;99302.72;;;4.76
77223;BMP280;66218;48.928;9.140;2023-04-03T00:29:51;99301.72;;;4.72
77223;BMP280;66218;48.928;9.140;2023-04-03T00:32:16;99293.66;;;4.74
77223;BMP280;66218;48.928;9.140;2023-04-03T00:34:41;99293.78;;;4.76
77223;BMP280;66218;48.928;9.140;2023-04-03T00:37:06;99286.75;;;4.73
77223;BMP280;66218;48.928;9.140;2023-04-03T00:39:32;99294.94;;;4.73
77223;BMP280;66218;48.928;9.140;2023-04-03T00:41:57;99295.81;;;4.75
77223;BMP280;66218;48.928;9.140;2023-04-03T00:47:13;99285.16;;;4.70
77223;BMP280;66218;48.928;9.140;2023-04-03T00:49:41;99288.22;;;4.64
77223;BMP280;66218;48.928;9.140;2023-04-03T00:52:10;99294.81;;;4.61
77223;BMP280;66218;48.928;9.140;2023-04-03T00:54:37;99296.72;;;4.58
77223;BMP280;66218;48.928;9.140;2023-04-03T00:57:05;99296.72;;;4.58
77223;BMP280;66218;48.928;9.140;2023-04-03T00:59:34;99297.03;;;4.53
77223;BMP280;66218;48.928;9.140;2023-04-03T01:02:00;99297.03;;;4.53
77223;BMP280;66218;48.928;9.140;2023-04-03T01:04:31;99288.28;;;4.45
77223;BMP280;66218;48.928;9.140;2023-04-03T01:07:04;99281.53;;;4.46
77223;BMP280;66218;48.928;9.140;2023-04-03T01:09:31;99281.53;;;4.46
77223;BMP280;66218;48.928;9.140;2023-04-03T01:12:37;99289.56;;;4.44
77223;BMP280;66218;48.928;9.140;2023-04-03T01:15:08;99281.72;;;4.38
77223;BMP280;66218;48.928;9.140;2023-04-03T01:23:12;99282.56;;;4.31
77223;BMP280;66218;48.928;9.140;2023-04-03T01:25:43;99286.75;;;4.32
77223;BMP280;66218;48.928;9.140;2023-04-03T01:28:13;99280.72;;;4.33
77223;BMP280;66218;48.928;9.140;2023-04-03T01:33:43;99285.75;;;4.27
77223;BMP280;66218;48.928;9.140;2023-04-03T01:36:10;99284.72;;;4.23
77223;BMP280;66218;48.928;9.140;2023-04-03T01:38:35;99288.94;;;4.24
77223;BMP280;66218;48.928;9.140;2023-04-03T01:41:01;99281.75;;;4.19
77223;BMP280;66218;48.928;9.140;2023-04-03T01:43:26;99290.53;;;4.17
77223;BMP280;66218;48.928;9.140;2023-04-03T01:45:51;99290.41;;;4.15
77223;BMP280;66218;48.928;9.140;2023-04-03T01:48:19;99282.91;;;4.16
77223;BMP280;66218;48.928;9.140;2023-04-03T01:50:44;99286.22;;;4.14
77223;BMP280;66218;48.928;9.140;2023-04-03T01:53:10;99287.50;;;4.13
77223;BMP280;66218;48.928;9.140;2023-04-03T01:55:35;99287.66;;;4.15
77223;BMP280;66218;48.928;9.140;2023-04-03T01:58:00;99297.13;;;4.24
77223;BMP280;66218;48.928;9.140;2023-04-03T02:00:26;99297.13;;;4.24
77223;BMP280;66218;48.928;9.140;2023-04-03T02:02:51;99287.22;;;4.19
77223;BMP280;66218;48.928;9.140;2023-04-03T02:05:17;99296.13;;;4.19
77223;BMP280;66218;48.928;9.140;2023-04-03T02:07:42;99287.78;;;4.17
77223;BMP280;66218;48.928;9.140;2023-04-03T02:10:08;99289.81;;;4.17
77223;BMP280;66218;48.928;9.140;2023-04-03T02:12:33;99297.53;;;4.20
77223;BMP280;66218;48.928;9.140;2023-04-03T02:14:58;99295.09;;;4.24
77223;BMP280;66218;48.928;9.140;2023-04-03T02:17:24;99304.88;;;4.27
77223;BMP280;66218;48.928;9.140;2023-04-03T02:19:49;99304.88;;;4.27
77223;BMP280;66218;48.928;9.140;2023-04-03T02:22:14;99304.44;;;4.21
77223;BMP280;66218;48.928;9.140;2023-04-03T02:24:40;99297.69;;;4.22
77223;BMP280;66218;48.928;9.140;2023-04-03T02:27:06;99295.53;;;4.21
77223;BMP280;66218;48.928;9.140;2023-04-03T02:29:31;99304.59;;;4.23
77223;BMP280;66218;48.928;9.140;2023-04-03T02:31:57;99304.44;;;4.21
77223;BMP280;66218;48.928;9.140;2023-04-03T02:34:22;99298.41;;;4.23
77223;BMP280;66218;48.928;9.140;2023-04-03T02:36:47;99301.59;;;4.19
77223;BMP280;66218;48.928;9.140;2023-04-03T02:39:12;99308.22;;;4.16
77223;BMP280;66218;48.928;9.140;2023-04-03T02:41:38;99304.59;;;4.13
77223;BMP280;66218;48.928;9.140;2023-04-03T02:44:05;99301.59;;;4.09
77223;BMP280;66218;48.928;9.140;2023-04-03T02:46:31;99291.13;;;4.06
77223;BMP280;66218;48.928;9.140;2023-04-03T02:48:57;99297.56;;;4.01
77223;BMP280;66218;48.928;9.140;2023-04-03T02:51:22;99298.88;;;4.00
77223;BMP280;66218;48.928;9.140;2023-04-03T02:53:49;99295.28;;;3.97
77223;BMP280;66218;48.928;9.140;2023-04-03T02:56:14;99293.56;;;3.92
77223;BMP280;66218;48.928;9.140;2023-04-03T02:58:40;99302.31;;;4.00
77223;BMP280;66218;48.928;9.140;2023-04-03T03:01:05;99302.31;;;4.00
77223;BMP280;66218;48.928;9.140;2023-04-03T03:03:30;99291.97;;;3.99
77223;BMP280;66218;48.928;9.140;2023-04-03T03:06:10;99298.28;;;4.01
77223;BMP280;66218;48.928;9.140;2023-04-03T03:08:37;99301.47;;;4.07
77223;BMP280;66218;48.928;9.140;2023-04-03T03:11:02;99297.59;;;4.10
77223;BMP280;66218;48.928;9.140;2023-04-03T03:13:28;99297.13;;;4.14
77223;BMP280;66218;48.928;9.140;2023-04-03T03:15:54;99290.53;;;4.17
77223;BMP280;66218;48.928;9.140;2023-04-03T03:18:19;99287.22;;;4.19
77223;BMP280;66218;48.928;9.140;2023-04-03T03:20:45;99290.94;;;4.23
77223;BMP280;66218;48.928;9.140;2023-04-03T03:23:10;99295.22;;;4.26
77223;BMP280;66218;48.928;9.140;2023-04-03T03:25:39;99285.03;;;4.27
77223;BMP280;66218;48.928;9.140;2023-04-03T03:28:06;99285.19;;;4.29
77223;BMP280;66218;48.928;9.140;2023-04-03T03:30:31;99283.16;;;4.29
77223;BMP280;66218;48.928;9.140;2023-04-03T03:32:56;99281.00;;;4.28
77223;BMP280;66218;48.928;9.140;2023-04-03T03:35:22;99284.47;;;4.28
77223;BMP280;66218;48.928;9.140;2023-04-03T03:37:47;99286.59;;;4.30
77223;BMP280;66218;48.928;9.140;2023-04-03T03:40:12;99285.19;;;4.29
77223;BMP280;66218;48.928;9.140;2023-04-03T03:42:38;99281.16;;;4.30
77223;BMP280;66218;48.928;9.140;2023-04-03T03:45:04;99292.34;;;4.34
77223;BMP280;66218;48.928;9.140;2023-04-03T03:47:29;99286.88;;;4.34
77223;BMP280;66218;48.928;9.140;2023-04-03T03:49:55;99283.56;;;4.35
77223;BMP280;66218;48.928;9.140;2023-04-03T03:52:20;99284.16;;;4.34
77223;BMP280;66218;48.928;9.140;2023-04-03T03:54:46;99288.19;;;4.33
77223;BMP280;66218;48.928;9.140;2023-04-03T03:57:11;99286.31;;;4.35
77223;BMP280;66218;48.928;9.140;2023-04-03T03:59:36;99302.09;;;4.47
77223;BMP280;66218;48.928;9.140;2023-04-03T04:02:02;99302.09;;;4.47
77223;BMP280;66218;48.928;9.140;2023-04-03T04:04:28;99289.44;;;4.42
77223;BMP280;66218;48.928;9.140;2023-04-03T04:06:53;99290.00;;;4.40
77223;BMP280;66218;48.928;9.140;2023-04-03T04:09:18;99299.78;;;4.43
77223;BMP280;66218;48.928;9.140;2023-04-03T04:11:44;99300.94;;;4.40
77223;BMP280;66218;48.928;9.140;2023-04-03T04:14:10;99301.09;;;4.42
77223;BMP280;66218;48.928;9.140;2023-04-03T04:16:37;99298.47;;;4.44
77223;BMP280;66218;48.928;9.140;2023-04-03T04:19:02;99295.91;;;4.46
77223;BMP280;66218;48.928;9.140;2023-04-03T04:21:28;99301.38;;;4.46
77223;BMP280;66218;48.928;9.140;2023-04-03T04:23:53;99295.19;;;4.46
77223;BMP280;66218;48.928;9.140;2023-04-03T04:26:18;99295.19;;;4.46
77223;BMP280;66218;48.928;9.140;2023-04-03T04:28:44;99304.53;;;4.43
77223;BMP280;66218;48.928;9.140;2023-04-03T04:31:09;99302.53;;;4.43
77223;BMP280;66218;48.928;9.140;2023-04-03T04:33:34;99295.38;;;4.38
77223;BMP280;66218;48.928;9.140;2023-04-03T04:36:00;99293.06;;;4.34
77223;BMP280;66218;48.928;9.140;2023-04-03T04:38:25;99299.13;;;4.33
77223;BMP280;66218;48.928;9.140;2023-04-03T04:40:51;99299.69;;;4.31
77223;BMP280;66218;48.928;9.140;2023-04-03T04:43:16;99310.59;;;4.31
77223;BMP280;66218;48.928;9.140;2023-04-03T04:45:41;99310.59;;;4.31
77223;BMP280;66218;48.928;9.140;2023-04-03T04:48:07;99304.59;;;4.23
77223;BMP280;66218;48.928;9.140;2023-04-03T04:50:32;99304.00;;;4.25
77223;BMP280;66218;48.928;9.140;2023-04-03T04:52:58;99305.16;;;4.22
77223;BMP280;66218;48.928;9.140;2023-04-03T04:55:23;99305.88;;;4.22
77223;BMP280;66218;48.928;9.140;2023-04-03T04:57:48;99314.34;;;4.26
77223;BMP280;66218;48.928;9.140;2023-04-03T05:00:15;99322.47;;;4.15
77223;BMP280;66218;48.928;9.140;2023-04-03T05:02:40;99322.47;;;4.15
77223;BMP280;66218;48.928;9.140;2023-04-03T05:05:06;99316.84;;;4.03
77223;BMP280;66218;48.928;9.140;2023-04-03T05:07:31;99324.75;;;3.99
77223;BMP280;66218;48.928;9.140;2023-04-03T05:09:57;99323.91;;;3.96
77223;BMP280;66218;48.928;9.140;2023-04-03T05:12:23;99319.41;;;4.01
77223;BMP280;66218;48.928;9.140;2023-04-03T05:14:48;99333.94;;;4.13
77223;BMP280;66218;48.928;9.140;2023-04-03T05:17:14;99336.63;;;4.23
77223;BMP280;66218;48.928;9.140;2023-04-03T05:19:39;99335.78;;;4.20
77223;BMP280;66218;48.928;9.140;2023-04-03T05:22:04;99327.72;;;4.22
77223;BMP280;66218;48.928;9.140;2023-04-03T05:24:30;99333.34;;;4.34
77223;BMP280;66218;48.928;9.140;2023-04-03T05:26:55;99329.88;;;4.33
77223;BMP280;66218;48.928;9.140;2023-04-03T05:29:21;99340.06;;;4.43
77223;BMP280;66218;48.928;9.140;2023-04-03T05:31:49;99344.50;;;4.48
77223;BMP280;66218;48.928;9.140;2023-04-03T05:34:14;99339.63;;;4.46
77223;BMP280;66218;48.928;9.140;2023-04-03T05:36:39;99339.63;;;4.46
77223;BMP280;66218;48.928;9.140;2023-04-03T05:39:05;99336.28;;;4.57
77223;BMP280;66218;48.928;9.140;2023-04-03T05:41:30;99342.50;;;4.58
77223;BMP280;66218;48.928;9.140;2023-04-03T05:43:56;99346.63;;;4.59
77223;BMP280;66218;48.928;9.140;2023-04-03T05:46:21;99343.06;;;4.56
77223;BMP280;66218;48.928;9.140;2023-04-03T05:48:47;99344.63;;;4.59
77223;BMP280;66218;48.928;9.140;2023-04-03T05:51:19;99347.34;;;4.59
77223;BMP280;66218;48.928;9.140;2023-04-03T05:53:45;99352.69;;;4.57
77223;BMP280;66218;48.928;9.140;2023-04-03T05:56:11;99350.53;;;4.56
77223;BMP280;66218;48.928;9.140;2023-04-03T05:58:36;99352.44;;;4.53
77223;BMP280;66218;48.928;9.140;2023-04-03T06:01:02;99354.69;;;4.57
77223;BMP280;66218;48.928;9.140;2023-04-03T06:03:27;99354.69;;;4.57
77223;BMP280;66218;48.928;9.140;2023-04-03T06:05:53;99354.00;;;4.56
77223;BMP280;66218;48.928;9.140;2023-04-03T06:08:18;99357.25;;;4.64
77223;BMP280;66218;48.928;9.140;2023-04-03T06:10:44;99364.91;;;4.66
77223;BMP280;66218;48.928;9.140;2023-04-03T06:13:09;99362.16;;;4.66
77223;BMP280;66218;48.928;9.140;2023-04-03T06:15:35;99360.81;;;4.77
77223;BMP280;66218;48.928;9.140;2023-04-03T06:18:00;99366.03;;;4.73
77223;BMP280;66218;48.928;9.140;2023-04-03T06:20:26;99373.34;;;4.80
77223;BMP280;66218;48.928;9.140;2023-04-03T06:22:51;99358.91;;;4.89
77223;BMP280;66218;48.928;9.140;2023-04-03T06:25:17;99376.56;;;4.98
77223;BMP280;66218;48.928;9.140;2023-04-03T06:27:43;99373.09;;;5.07
77223;BMP280;66218;48.928;9.140;2023-04-03T06:30:09;99382.81;;;5.19
77223;BMP280;66218;48.928;9.140;2023-04-03T06:32:34;99385.16;;;5.35
77223;BMP280;66218;48.928;9.140;2023-04-03T06:35:00;99377.09;;;5.37
77223;BMP280;66218;48.928;9.140;2023-04-03T06:37:25;99377.19;;;5.49
77223;BMP280;66218;48.928;9.140;2023-04-03T06:39:51;99380.63;;;5.49
77223;BMP280;66218;48.928;9.140;2023-04-03T06:42:17;99383.19;;;5.57
77223;BMP280;66218;48.928;9.140;2023-04-03T06:44:43;99384.28;;;5.63
77223;BMP280;66218;48.928;9.140;2023-04-03T06:47:11;99385.41;;;5.70
77223;BMP280;66218;48.928;9.140;2023-04-03T06:49:37;99382.66;;;5.70
77223;BMP280;66218;48.928;9.140;2023-04-03T06:52:03;99398.41;;;6.03
77223;BMP280;66218;48.928;9.140;2023-04-03T06:54:28;99389.38;;;6.12
77223;BMP280;66218;48.928;9.140;2023-04-03T06:56:53;99392.13;;;6.12
77223;BMP280;66218;48.928;9.140;2023-04-03T06:59:19;99392.38;;;6.16
77223;BMP280;66218;48.928;9.140;2023-04-03T07:01:44;99392.56;;;6.41
77223;BMP280;66218;48.928;9.140;2023-04-03T07:04:10;99399.38;;;6.52
77223;BMP280;66218;48.928;9.140;2023-04-03T07:06:35;99404.75;;;6.62
77223;BMP280;66218;48.928;9.140;2023-04-03T07:09:01;99408.25;;;6.74
77223;BMP280;66218;48.928;9.140;2023-04-03T07:11:27;99409.91;;;6.67
77223;BMP280;66218;48.928;9.140;2023-04-03T07:13:53;99408.25;;;6.86
77223;BMP280;66218;48.928;9.140;2023-04-03T07:16:18;99405.25;;;6.81
77223;BMP280;66218;48.928;9.140;2023-04-03T07:18:44;99414.47;;;6.86
77223;BMP280;66218;48.928;9.140;2023-04-03T07:21:10;99410.88;;;7.07
77223;BMP280;66218;48.928;9.140;2023-04-03T07:23:36;99422.91;;;7.02
77223;BMP280;66218;48.928;9.140;2023-04-03T07:26:02;99429.50;;;7.08
77223;BMP280;66218;48.928;9.140;2023-04-03T07:28:27;99425.19;;;6.94
77223;BMP280;66218;48.928;9.140;2023-04-03T07:31:03;99426.50;;;6.93
77223;BMP280;66218;48.928;9.140;2023-04-03T07:33:28;99430.09;;;7.19
77223;BMP280;66218;48.928;9.140;2023-04-03T07:35:54;99435.09;;;7.11
77223;BMP280;66218;48.928;9.140;2023-04-03T07:38:20;99427.22;;;7.17
77223;BMP280;66218;48.928;9.140;2023-04-03T07:40:50;99434.41;;;7.10
77223;BMP280;66218;48.928;9.140;2023-04-03T07:43:17;99432.00;;;6.93
77223;BMP280;66218;48.928;9.140;2023-04-03T07:45:42;99436.16;;;6.94
77223;BMP280;66218;48.928;9.140;2023-04-03T07:48:08;99432.84;;;6.95
77223;BMP280;66218;48.928;9.140;2023-04-03T07:50:34;99430.44;;;6.90
77223;BMP280;66218;48.928;9.140;2023-04-03T07:52:59;99437.13;;;6.98
77223;BMP280;66218;48.928;9.140;2023-04-03T07:55:25;99431.63;;;6.98
77223;BMP280;66218;48.928;9.140;2023-04-03T07:57:51;99443.19;;;6.85
77223;BMP280;66218;48.928;9.140;2023-04-03T08:00:16;99443.09;;;7.06
77223;BMP280;66218;48.928;9.140;2023-04-03T08:02:46;99441.06;;;7.07
77223;BMP280;66218;48.928;9.140;2023-04-03T08:05:17;99443.94;;;7.09
77223;BMP280;66218;48.928;9.140;2023-04-03T08:07:43;99437.72;;;7.20
77223;BMP280;66218;48.928;9.140;2023-04-03T08:10:08;99443.44;;;7.24
77223;BMP280;66218;48.928;9.140;2023-04-03T08:12:34;99451.81;;;7.15
77223;BMP280;66218;48.928;9.140;2023-04-03T08:15:00;99444.66;;;7.21
77223;BMP280;66218;48.928;9.140;2023-04-03T08:17:26;99441.22;;;7.21
77223;BMP280;66218;48.928;9.140;2023-04-03T08:19:51;99444.28;;;7.15
77223;BMP280;66218;48.928;9.140;2023-04-03T08:22:17;99445.47;;;7.12
77223;BMP280;66218;48.928;9.140;2023-04-03T08:24:42;99444.53;;;7.19
77223;BMP280;66218;48.928;9.140;2023-04-03T08:27:07;99446.81;;;7.34
77223;BMP280;66218;48.928;9.140;2023-04-03T08:29:33;99442.81;;;7.49
77223;BMP280;66218;48.928;9.140;2023-04-03T08:31:58;99449.63;;;7.36
77223;BMP280;66218;48.928;9.140;2023-04-03T08:34:23;99441.66;;;7.41
77223;BMP280;66218;48.928;9.140;2023-04-03T08:36:49;99445.09;;;7.41
77223;BMP280;66218;48.928;9.140;2023-04-03T08:39:14;99441.72;;;7.66
77223;BMP280;66218;48.928;9.140;2023-04-03T08:41:44;99443.31;;;7.46
77223;BMP280;66218;48.928;9.140;2023-04-03T08:47:22;99452.50;;;7.99
77223;BMP280;66218;48.928;9.140;2023-04-03T08:49:57;99447.00;;;7.99
77223;BMP280;66218;48.928;9.140;2023-04-03T08:52:36;99449.69;;;7.85
77223;BMP280;66218;48.928;9.140;2023-04-03T08:55:27;99451.63;;;8.08
77223;BMP280;66218;48.928;9.140;2023-04-03T08:58:16;99450.81;;;8.31
77223;BMP280;66218;48.928;9.140;2023-04-03T09:00:46;99447.66;;;8.76
77223;BMP280;66218;48.928;9.140;2023-04-03T09:03:18;99441.78;;;9.09
77223;BMP280;66218;48.928;9.140;2023-04-03T09:11:24;99460.84;;;8.91
77223;BMP280;66218;48.928;9.140;2023-04-03T09:14:11;99459.41;;;9.18
77223;BMP280;66218;48.928;9.140;2023-04-03T09:17:02;99456.28;;;9.23
77223;BMP280;66218;48.928;9.140;2023-04-03T09:22:23;99459.94;;;9.14
77223;BMP280;66218;48.928;9.140;2023-04-03T09:24:58;99458.31;;;9.09
77223;BMP280;66218;48.928;9.140;2023-04-03T09:27:25;99458.72;;;9.04
77223;BMP280;66218;48.928;9.140;2023-04-03T09:29:53;99463.41;;;9.01
77223;BMP280;66218;48.928;9.140;2023-04-03T09:32:34;99462.09;;;9.02
77223;BMP280;66218;48.928;9.140;2023-04-03T09:35:15;99456.16;;;9.08
77223;BMP280;66218;48.928;9.140;2023-04-03T09:37:43;99449.53;;;9.13
77223;BMP280;66218;48.928;9.140;2023-04-03T09:42:50;99453.19;;;9.17
77223;BMP280;66218;48.928;9.140;2023-04-03T09:45:33;99450.75;;;8.82
77223;BMP280;66218;48.928;9.140;2023-04-03T09:48:16;99452.13;;;8.69
77223;BMP280;66218;48.928;9.140;2023-04-03T09:53:37;99459.88;;;8.59
77223;BMP280;66218;48.928;9.140;2023-04-03T09:59:43;99453.06;;;8.74
77223;BMP280;66218;48.928;9.140;2023-04-03T10:01:39;99444.22;;;8.76
77223;BMP280;66218;48.928;9.140;2023-04-03T10:04:18;99452.44;;;8.62
77223;BMP280;66218;48.928;9.140;2023-04-03T10:06:46;99446.78;;;8.46
77223;BMP280;66218;48.928;9.140;2023-04-03T10:12:08;99448.28;;;8.74
77223;BMP280;66218;48.928;9.140;2023-04-03T10:14:57;99440.13;;;8.77
77223;BMP280;66218;48.928;9.140;2023-04-03T10:17:49;99437.16;;;8.59
77223;BMP280;66218;48.928;9.140;2023-04-03T10:20:34;99434.75;;;8.39
77223;BMP280;66218;48.928;9.140;2023-04-03T10:26:13;99435.63;;;8.30
77223;BMP280;66218;48.928;9.140;2023-04-03T10:28:59;99431.50;;;8.17
77223;BMP280;66218;48.928;9.140;2023-04-03T10:31:57;99437.31;;;8.49
77223;BMP280;66218;48.928;9.140;2023-04-03T10:34:40;99440.06;;;9.16
77223;BMP280;66218;48.928;9.140;2023-04-03T10:37:44;99434.13;;;9.21
77223;BMP280;66218;48.928;9.140;2023-04-03T10:40:23;99440.91;;;9.75
77223;BMP280;66218;48.928;9.140;2023-04-03T10:42:54;99433.63;;;10.11
77223;BMP280;66218;48.928;9.140;2023-04-03T10:45:26;99434.31;;;9.96
77223;BMP280;66218;48.928;9.140;2023-04-03T10:48:15;99422.94;;;10.04
77223;BMP280;66218;48.928;9.140;2023-04-03T10:53:52;99431.84;;;9.59
77223;BMP280;66218;48.928;9.140;2023-04-03T11:01:33;99442.38;;;8.80
77223;BMP280;66218;48.928;9.140;2023-04-03T11:04:00;99434.72;;;8.79
77223;BMP280;66218;48.928;9.140;2023-04-03T11:06:34;99438.19;;;8.79
77223;BMP280;66218;48.928;9.140;2023-04-03T11:09:09;99438.78;;;8.78
77223;BMP280;66218;48.928;9.140;2023-04-03T11:11:38;99429.28;;;8.67
77223;BMP280;66218;48.928;9.140;2023-04-03T11:14:13;99419.13;;;8.83
77223;BMP280;66218;48.928;9.140;2023-04-03T11:16:45;99422.72;;;8.86
77223;BMP280;66218;48.928;9.140;2023-04-03T11:19:18;99421.88;;;8.69
77223;BMP280;66218;48.928;9.140;2023-04-03T11:21:57;99426.09;;;8.45
77223;BMP280;66218;48.928;9.140;2023-04-03T11:24:27;99426.63;;;8.41
77223;BMP280;66218;48.928;9.140;2023-04-03T11:26:56;99430.44;;;8.36
77223;BMP280;66218;48.928;9.140;2023-04-03T11:29:37;99422.94;;;8.11
77223;BMP280;66218;48.928;9.140;2023-04-03T11:34:44;99424.22;;;7.85
77223;BMP280;66218;48.928;9.140;2023-04-03T11:37:20;99424.59;;;7.91
77223;BMP280;66218;48.928;9.140;2023-04-03T11:39:52;99410.56;;;7.99
77223;BMP280;66218;48.928;9.140;2023-04-03T11:42:38;99416.66;;;8.23
77223;BMP280;66218;48.928;9.140;2023-04-03T11:48:00;99408.84;;;8.84
77223;BMP280;66218;48.928;9.140;2023-04-03T11:53:29;99405.69;;;9.03
77223;BMP280;66218;48.928;9.140;2023-04-03T11:55:57;99407.13;;;9.04
77223;BMP280;66218;48.928;9.140;2023-04-03T11:58:25;99401.50;;;9.16
77223;BMP280;66218;48.928;9.140;2023-04-03T12:08:50;99399.06;;;9.95
77223;BMP280;66218;48.928;9.140;2023-04-03T12:21:15;99391.31;;;10.52
77223;BMP280;66218;48.928;9.140;2023-04-03T12:26:47;99384.72;;;9.82
77223;BMP280;66218;48.928;9.140;2023-04-03T12:46:24;99379.53;;;11.17
77223;BMP280;66218;48.928;9.140;2023-04-03T12:48:27;99382.81;;;10.95
77223;BMP280;66218;48.928;9.140;2023-04-03T12:50:54;99383.13;;;10.54
77223;BMP280;66218;48.928;9.140;2023-04-03T12:53:24;99383.38;;;10.45
77223;BMP280;66218;48.928;9.140;2023-04-03T12:55:55;99379.91;;;10.44
77223;BMP280;66218;48.928;9.140;2023-04-03T12:58:22;99378.38;;;10.57
77223;BMP280;66218;48.928;9.140;2023-04-03T13:01:10;99375.25;;;10.64
77223;BMP280;66218;48.928;9.140;2023-04-03T13:03:39;99377.75;;;11.08
77223;BMP280;66218;48.928;9.140;2023-04-03T13:06:06;99380.66;;;10.94
77223;BMP280;66218;48.928;9.140;2023-04-03T13:08:31;99369.66;;;10.78
77223;BMP280;66218;48.928;9.140;2023-04-03T13:11:10;99364.91;;;10.65
77223;BMP280;66218;48.928;9.140;2023-04-03T13:13:37;99364.84;;;10.79
77223;BMP280;66218;48.928;9.140;2023-04-03T13:16:11;99368.31;;;10.79
77223;BMP280;66218;48.928;9.140;2023-04-03T13:18:37;99362.97;;;11.17
77223;BMP280;66218;48.928;9.140;2023-04-03T13:21:06;99359.88;;;11.44
77223;BMP280;66218;48.928;9.140;2023-04-03T13:23:35;99354.75;;;11.54
77223;BMP280;66218;48.928;9.140;2023-04-03T13:26:01;99354.72;;;11.72
77223;BMP280;66218;48.928;9.140;2023-04-03T13:28:30;99356.66;;;11.50
77223;BMP280;66218;48.928;9.140;2023-04-03T13:31:13;99360.09;;;11.68
77223;BMP280;66218;48.928;9.140;2023-04-03T13:36:36;99347.72;;;12.27
77223;BMP280;66218;48.928;9.140;2023-04-03T13:41:43;99346.09;;;12.20
77223;BMP280;66218;48.928;9.140;2023-04-03T13:44:35;99357.22;;;12.02
77223;BMP280;66218;48.928;9.140;2023-04-03T13:49:35;99349.31;;;11.39
77223;BMP280;66218;48.928;9.140;2023-04-03T13:52:26;99354.34;;;11.09
77223;BMP280;66218;48.928;9.140;2023-04-03T13:54:57;99360.47;;;11.07
77223;BMP280;66218;48.928;9.140;2023-04-03T13:57:23;99362.88;;;10.99
77223;BMP280;66218;48.928;9.140;2023-04-03T13:59:49;99357.16;;;10.77
77223;BMP280;66218;48.928;9.140;2023-04-03T14:02:38;99348.47;;;10.67
77223;BMP280;66218;48.928;9.140;2023-04-03T14:05:04;99356.53;;;10.13
77223;BMP280;66218;48.928;9.140;2023-04-03T14:07:33;99348.66;;;9.92
77223;BMP280;66218;48.928;9.140;2023-04-03T14:09:59;99341.22;;;9.81
77223;BMP280;66218;48.928;9.140;2023-04-03T14:12:36;99351.41;;;9.92
77223;BMP280;66218;48.928;9.140;2023-04-03T14:15:14;99351.41;;;10.08
77223;BMP280;66218;48.928;9.140;2023-04-03T14:17:40;99356.50;;;10.45
77223;BMP280;66218;48.928;9.140;2023-04-03T14:20:10;99351.09;;;10.81
77223;BMP280;66218;48.928;9.140;2023-04-03T14:22:38;99351.22;;;10.67
77223;BMP280;66218;48.928;9.140;2023-04-03T14:25:04;99339.84;;;10.92
77223;BMP280;66218;48.928;9.140;2023-04-03T14:27:34;99339.50;;;10.84
77223;BMP280;66218;48.928;9.140;2023-04-03T14:30:01;99334.63;;;10.83
77223;BMP280;66218;48.928;9.140;2023-04-03T14:32:28;99343.50;;;10.63
77223;BMP280;66218;48.928;9.140;2023-04-03T14:34:54;99343.84;;;10.40
77223;BMP280;66218;48.928;9.140;2023-04-03T14:37:26;99335.09;;;9.82
77223;BMP280;66218;48.928;9.140;2023-04-03T14:39:53;99335.47;;;9.75
77223;BMP280;66218;48.928;9.140;2023-04-03T14:42:25;99338.63;;;9.69
77223;BMP280;66218;48.928;9.140;2023-04-03T14:44:50;99333.53;;;9.64
77223;BMP280;66218;48.928;9.140;2023-04-03T14:49:26;99337.31;;;9.41
77223;BMP280;66218;48.928;9.140;2023-04-03T14:51:52;99335.03;;;9.08
77223;BMP280;66218;48.928;9.140;2023-04-03T14:54:20;99331.97;;;8.88
77223;BMP280;66218;48.928;9.140;2023-04-03T14:56:50;99323.34;;;8.66
77223;BMP280;66218;48.928;9.140;2023-04-03T14:59:15;99327.59;;;8.41
77223;BMP280;66218;48.928;9.140;2023-04-03T15:01:42;99322.38;;;8.20
77223;BMP280;66218;48.928;9.140;2023-04-03T15:04:19;99315.56;;;8.35
77223;BMP280;66218;48.928;9.140;2023-04-03T15:06:46;99320.06;;;8.69
77223;BMP280;66218;48.928;9.140;2023-04-03T15:11:45;99319.34;;;9.69
77223;BMP280;66218;48.928;9.140;2023-04-03T15:14:10;99318.91;;;9.91
77223;BMP280;66218;48.928;9.140;2023-04-03T15:16:35;99320.91;;;9.88
77223;BMP280;66218;48.928;9.140;2023-04-03T15:19:01;99316.88;;;9.75
77223;BMP280;66218;48.928;9.140;2023-04-03T15:21:26;99315.44;;;9.74
77223;BMP280;66218;48.928;9.140;2023-04-03T15:23:52;99325.72;;;9.58
77223;BMP280;66218;48.928;9.140;2023-04-03T15:26:17;99321.38;;;9.39
77223;BMP280;66218;48.928;9.140;2023-04-03T15:28:43;99313.47;;;9.32
77223;BMP280;66218;48.928;9.140;2023-04-03T15:31:09;99321.66;;;9.16
77223;BMP280;66218;48.928;9.140;2023-04-03T15:33:35;99329.28;;;9.17
77223;BMP280;66218;48.928;9.140;2023-04-03T15:36:00;99315.03;;;9.07
77223;BMP280;66218;48.928;9.140;2023-04-03T15:38:26;99313.94;;;8.98
77223;BMP280;66218;48.928;9.140;2023-04-03T15:40:51;99313.97;;;8.85
77223;BMP280;66218;48.928;9.140;2023-04-03T15:43:17;99315.56;;;8.90
77223;BMP280;66218;48.928;9.140;2023-04-03T15:45:43;99315.84;;;9.23
77223;BMP280;66218;48.928;9.140;2023-04-03T15:48:10;99312.06;;;9.76
77223;BMP280;66218;48.928;9.140;2023-04-03T15:50:35;99316.53;;;10.30
77223;BMP280;66218;48.928;9.140;2023-04-03T15:53:02;99312.16;;;10.57
77223;BMP280;66218;48.928;9.140;2023-04-03T15:55:29;99311.50;;;10.74
77223;BMP280;66218;48.928;9.140;2023-04-03T15:57:55;99308.00;;;10.73
77223;BMP280;66218;48.928;9.140;2023-04-03T16:00:22;99313.81;;;10.80
77223;BMP280;66218;48.928;9.140;2023-04-03T16:02:50;99315.81;;;10.46
77223;BMP280;66218;48.928;9.140;2023-04-03T16:05:17;99319.59;;;10.05
77223;BMP280;66218;48.928;9.140;2023-04-03T16:07:43;99315.31;;;9.56
77223;BMP280;66218;48.928;9.140;2023-04-03T16:10:10;99308.06;;;9.34